Time;durP1;ratioP1;P1;durP2;ratioP2;P2;SDS_P1;SDS_P2;PMS_P1;PMS_P2;Temp;Humidity;BMP_temperature;BMP_pressure;BME280_temperature;BME280_humidity;BME280_pressure;Samples;Min_cycle;Max_cycle;Signal;HPM_P1;HPM_P2
2023/08/03 00:02:27;;;;;;;2.85;1.30;;;;;;;;;;5117896;28;20214;-68
2023/08/03 00:04:55;;;;;;;1.65;1.40;;;;;;;;;;5117664;28;20491;-69
2023/08/03 00:07:22;;;;;;;3.63;1.45;;;;;;;;;;5117442;28;20203;-69
2023/08/03 00:09:50;;;;;;;4.07;1.38;;;;;;;;;;5117400;28;20203;-69
2023/08/03 00:12:18;;;;;;;2.70;1.27;;;;;;;;;;5117747;28;20210;-69
2023/08/03 00:14:47;;;;;;;2.90;1.42;;;;;;;;;;5117935;28;20291;-69
2023/08/03 00:17:15;;;;;;;2.72;1.45;;;;;;;;;;5117522;28;20202;-68
2023/08/03 00:19:42;;;;;;;2.22;1.38;;;;;;;;;;5117494;28;20598;-68
2023/08/03 00:22:10;;;;;;;2.75;1.48;;;;;;;;;;5118084;28;20285;-69
2023/08/03 00:24:38;;;;;;;4.75;1.80;;;;;;;;;;5117648;28;20199;-69
2023/08/03 00:27:06;;;;;;;3.08;1.42;;;;;;;;;;5117606;28;20210;-69
2023/08/03 00:29:34;;;;;;;4.10;1.70;;;;;;;;;;5117644;28;20202;-69
2023/08/03 00:32:03;;;;;;;2.97;1.50;;;;;;;;;;5117672;28;20203;-69
2023/08/03 00:34:30;;;;;;;2.20;1.63;;;;;;;;;;5117456;28;20223;-69
2023/08/03 00:36:58;;;;;;;4.10;1.80;;;;;;;;;;5117715;28;20202;-69
2023/08/03 00:39:26;;;;;;;3.40;1.60;;;;;;;;;;5117401;28;20203;-69
2023/08/03 00:41:54;;;;;;;3.97;1.70;;;;;;;;;;5117484;28;20256;-68
2023/08/03 00:44:21;;;;;;;2.15;1.45;;;;;;;;;;5116974;28;20217;-68
2023/08/03 00:46:49;;;;;;;3.72;1.50;;;;;;;;;;5117050;28;20202;-68
2023/08/03 00:49:19;;;;;;;4.80;1.67;;;;;;;;;;5117272;28;20207;-68
2023/08/03 00:51:46;;;;;;;4.80;1.60;;;;;;;;;;5117265;28;20241;-68
2023/08/03 00:54:14;;;;;;;4.95;1.67;;;;;;;;;;5117236;28;20329;-68
2023/08/03 00:56:42;;;;;;;4.10;1.48;;;;;;;;;;5117413;28;20203;-68
2023/08/03 00:59:11;;;;;;;4.50;1.80;;;;;;;;;;5121184;28;20557;-68
2023/08/03 01:01:39;;;;;;;4.13;1.60;;;;;;;;;;5121245;28;20249;-68
2023/08/03 01:04:06;;;;;;;3.63;1.50;;;;;;;;;;5121173;28;20263;-68
2023/08/03 01:06:36;;;;;;;3.63;1.65;;;;;;;;;;5120959;28;20503;-68
2023/08/03 01:09:04;;;;;;;3.08;1.60;;;;;;;;;;5121517;28;20246;-69
2023/08/03 01:11:32;;;;;;;3.53;1.70;;;;;;;;;;5121293;28;20301;-68
2023/08/03 01:14:00;;;;;;;3.65;1.45;;;;;;;;;;5120347;28;20507;-69
2023/08/03 01:16:28;;;;;;;4.25;1.73;;;;;;;;;;5120883;28;20203;-68
2023/08/03 01:18:56;;;;;;;5.35;1.90;;;;;;;;;;5121138;28;20575;-69
2023/08/03 01:21:25;;;;;;;4.05;1.60;;;;;;;;;;5120992;28;20206;-69
2023/08/03 01:23:54;;;;;;;4.47;1.60;;;;;;;;;;5121057;28;20260;-69
2023/08/03 01:26:22;;;;;;;3.33;1.75;;;;;;;;;;5120866;28;20203;-69
2023/08/03 01:28:50;;;;;;;3.40;1.60;;;;;;;;;;5120504;28;20203;-69
2023/08/03 01:31:19;;;;;;;4.28;1.65;;;;;;;;;;5120620;28;20256;-69
2023/08/03 01:33:47;;;;;;;3.97;1.60;;;;;;;;;;5120571;28;20263;-69
2023/08/03 01:36:14;;;;;;;3.30;1.40;;;;;;;;;;5120792;28;20226;-68
2023/08/03 01:38:42;;;;;;;4.65;1.90;;;;;;;;;;5120687;28;20225;-68
2023/08/03 01:41:11;;;;;;;3.30;1.80;;;;;;;;;;5120808;28;20202;-68
2023/08/03 01:43:39;;;;;;;4.07;1.80;;;;;;;;;;5120379;28;20203;-68
2023/08/03 01:46:06;;;;;;;3.33;1.60;;;;;;;;;;5120760;28;20206;-68
2023/08/03 01:48:34;;;;;;;5.65;1.88;;;;;;;;;;5120146;28;20203;-68
2023/08/03 01:51:02;;;;;;;5.68;2.00;;;;;;;;;;5120426;28;20230;-68
2023/08/03 01:53:29;;;;;;;2.28;1.63;;;;;;;;;;5120665;28;20207;-68
2023/08/03 01:55:57;;;;;;;4.65;1.52;;;;;;;;;;5120269;28;20301;-68
2023/08/03 01:58:26;;;;;;;4.75;1.48;;;;;;;;;;5120378;28;20246;-68
2023/08/03 02:00:54;;;;;;;4.60;1.92;;;;;;;;;;5120171;28;20214;-68
2023/08/03 02:03:22;;;;;;;3.20;1.60;;;;;;;;;;5119908;28;20203;-69
2023/08/03 02:05:49;;;;;;;3.88;1.45;;;;;;;;;;5120280;28;20485;-69
2023/08/03 02:08:17;;;;;;;5.43;1.70;;;;;;;;;;5119981;28;20284;-68
2023/08/03 02:10:45;;;;;;;2.70;1.58;;;;;;;;;;5120245;28;20225;-69
2023/08/03 02:13:26;;;;;;;3.85;1.75;;;;;;;;;;5119732;28;20203;-69
2023/08/03 02:15:53;;;;;;;6.22;1.90;;;;;;;;;;5119530;28;20515;-69
2023/08/03 02:18:21;;;;;;;4.82;1.45;;;;;;;;;;5119838;28;20246;-69
2023/08/03 02:20:49;;;;;;;3.10;1.30;;;;;;;;;;5118878;28;20213;-68
2023/08/03 02:23:17;;;;;;;5.10;1.63;;;;;;;;;;5119903;28;20217;-68
2023/08/03 02:25:45;;;;;;;5.15;1.67;;;;;;;;;;5119757;28;20199;-68
2023/08/03 02:28:13;;;;;;;4.47;1.60;;;;;;;;;;5119656;28;20203;-68
2023/08/03 02:30:42;;;;;;;5.63;1.85;;;;;;;;;;5119493;28;20252;-68
2023/08/03 02:33:10;;;;;;;6.00;1.90;;;;;;;;;;5119898;28;20203;-68
2023/08/03 02:35:39;;;;;;;4.43;1.50;;;;;;;;;;5119649;28;20234;-68
2023/08/03 02:38:07;;;;;;;5.82;1.55;;;;;;;;;;5119220;28;20263;-68
2023/08/03 02:40:34;;;;;;;2.90;1.45;;;;;;;;;;5119443;28;20195;-68
2023/08/03 02:43:02;;;;;;;3.88;1.60;;;;;;;;;;5119135;28;20310;-68
2023/08/03 02:45:30;;;;;;;3.00;1.55;;;;;;;;;;5119908;28;20536;-68
2023/08/03 02:47:59;;;;;;;4.82;1.80;;;;;;;;;;5119196;28;20257;-68
2023/08/03 02:50:27;;;;;;;3.78;1.55;;;;;;;;;;5119212;28;20206;-68
2023/08/03 02:52:55;;;;;;;4.43;1.60;;;;;;;;;;5119286;28;20265;-68
2023/08/03 02:55:23;;;;;;;3.67;1.38;;;;;;;;;;5119276;28;20249;-68
2023/08/03 02:57:51;;;;;;;4.03;1.60;;;;;;;;;;5119335;28;20211;-68
2023/08/03 03:00:20;;;;;;;3.05;1.52;;;;;;;;;;5119223;28;20202;-69
2023/08/03 03:02:48;;;;;;;3.25;1.73;;;;;;;;;;5119144;28;20206;-69
2023/08/03 03:05:17;;;;;;;4.38;1.55;;;;;;;;;;5119170;28;20198;-68
2023/08/03 03:07:45;;;;;;;3.38;1.50;;;;;;;;;;5118953;28;20268;-68
2023/08/03 03:10:13;;;;;;;4.18;1.70;;;;;;;;;;5119147;28;20203;-68
2023/08/03 03:12:41;;;;;;;2.42;1.30;;;;;;;;;;5118607;28;20207;-68
2023/08/03 03:15:09;;;;;;;3.45;1.60;;;;;;;;;;5118798;28;20263;-68
2023/08/03 03:17:38;;;;;;;3.65;1.38;;;;;;;;;;5118692;28;20203;-68
2023/08/03 03:20:07;;;;;;;3.85;1.30;;;;;;;;;;5118419;28;20214;-68
2023/08/03 03:22:36;;;;;;;4.85;1.27;;;;;;;;;;5118596;28;20207;-68
2023/08/03 03:25:04;;;;;;;4.47;1.48;;;;;;;;;;5117655;28;20218;-68
2023/08/03 03:27:31;;;;;;;4.70;1.50;;;;;;;;;;5118095;28;20214;-68
2023/08/03 03:29:59;;;;;;;2.25;1.05;;;;;;;;;;5118130;28;20305;-68
2023/08/03 03:32:27;;;;;;;3.33;1.63;;;;;;;;;;5118456;28;20202;-68
2023/08/03 03:34:55;;;;;;;3.42;1.40;;;;;;;;;;5117941;28;20337;-68
2023/08/03 03:37:23;;;;;;;5.25;1.40;;;;;;;;;;5117552;28;20284;-68
2023/08/03 03:39:52;;;;;;;3.50;1.20;;;;;;;;;;5117332;28;20605;-68
2023/08/03 03:42:19;;;;;;;2.53;1.40;;;;;;;;;;5117591;28;20263;-68
2023/08/03 03:44:46;;;;;;;3.63;1.30;;;;;;;;;;5117750;28;20195;-68
2023/08/03 03:47:14;;;;;;;3.83;1.63;;;;;;;;;;5118124;28;20597;-69
2023/08/03 03:49:41;;;;;;;4.95;1.30;;;;;;;;;;5118048;28;20450;-69
2023/08/03 03:52:09;;;;;;;3.38;1.65;;;;;;;;;;5117446;28;20321;-68
2023/08/03 03:54:36;;;;;;;3.85;1.70;;;;;;;;;;5117565;28;20234;-68
2023/08/03 03:57:06;;;;;;;3.63;1.50;;;;;;;;;;5117817;28;20198;-68
2023/08/03 03:59:33;;;;;;;4.47;1.63;;;;;;;;;;5118049;28;20230;-68
2023/08/03 04:02:01;;;;;;;3.80;1.50;;;;;;;;;;5117540;28;20447;-68
2023/08/03 04:04:28;;;;;;;5.95;1.45;;;;;;;;;;5117752;28;20249;-69
2023/08/03 04:06:55;;;;;;;3.67;1.48;;;;;;;;;;5117729;28;20199;-69
2023/08/03 04:09:23;;;;;;;4.03;1.55;;;;;;;;;;5117267;28;20203;-68
2023/08/03 04:11:50;;;;;;;3.47;1.25;;;;;;;;;;5117178;28;20202;-68
2023/08/03 04:14:19;;;;;;;4.15;1.50;;;;;;;;;;5117256;28;20282;-68
2023/08/03 04:16:47;;;;;;;5.00;1.70;;;;;;;;;;5117536;28;20599;-68
2023/08/03 04:19:14;;;;;;;3.42;1.42;;;;;;;;;;5117383;28;20220;-68
2023/08/03 04:21:41;;;;;;;3.80;1.40;;;;;;;;;;5117345;28;20206;-68
2023/08/03 04:24:09;;;;;;;6.75;1.60;;;;;;;;;;5116899;28;20209;-68
2023/08/03 04:26:36;;;;;;;5.85;1.63;;;;;;;;;;5116972;28;20238;-68
2023/08/03 04:29:04;;;;;;;3.47;1.40;;;;;;;;;;5116871;28;20234;-68
2023/08/03 04:31:32;;;;;;;4.35;1.30;;;;;;;;;;5117393;28;20623;-69
2023/08/03 04:34:00;;;;;;;5.85;1.67;;;;;;;;;;5120687;28;20203;-69
2023/08/03 04:36:27;;;;;;;4.35;1.50;;;;;;;;;;5121216;28;20222;-69
2023/08/03 04:38:55;;;;;;;4.40;1.42;;;;;;;;;;5120927;28;20658;-69
2023/08/03 04:41:22;;;;;;;3.95;1.40;;;;;;;;;;5121047;28;20590;-69
2023/08/03 04:43:50;;;;;;;4.07;1.42;;;;;;;;;;5121191;28;20253;-69
2023/08/03 04:46:17;;;;;;;3.83;1.40;;;;;;;;;;5120607;28;20309;-69
2023/08/03 04:48:46;;;;;;;3.65;1.40;;;;;;;;;;5120760;28;20735;-69
2023/08/03 04:51:13;;;;;;;2.20;1.20;;;;;;;;;;5120495;28;20226;-68
2023/08/03 04:53:40;;;;;;;4.32;1.38;;;;;;;;;;5120781;28;20313;-68
2023/08/03 04:56:08;;;;;;;2.03;1.20;;;;;;;;;;5120362;28;20644;-68
2023/08/03 04:58:35;;;;;;;2.75;1.10;;;;;;;;;;5120749;28;20260;-69
2023/08/03 05:01:03;;;;;;;4.68;1.55;;;;;;;;;;5120567;28;20207;-69
2023/08/03 05:03:30;;;;;;;3.97;1.23;;;;;;;;;;5120547;28;20705;-69
2023/08/03 05:05:59;;;;;;;3.55;1.30;;;;;;;;;;5120567;28;20205;-68
2023/08/03 05:08:27;;;;;;;3.30;1.25;;;;;;;;;;5120356;28;20194;-68
2023/08/03 05:10:54;;;;;;;2.70;1.13;;;;;;;;;;5120386;28;20637;-68
2023/08/03 05:13:22;;;;;;;3.17;1.33;;;;;;;;;;5120589;28;20198;-68
2023/08/03 05:15:49;;;;;;;3.13;1.00;;;;;;;;;;5120698;28;20219;-68
2023/08/03 05:18:16;;;;;;;2.38;1.50;;;;;;;;;;5120222;28;20217;-68
2023/08/03 05:20:44;;;;;;;3.50;1.40;;;;;;;;;;5120106;28;20225;-69
2023/08/03 05:23:13;;;;;;;3.15;1.30;;;;;;;;;;5120711;28;20203;-69
2023/08/03 05:25:40;;;;;;;3.00;0.93;;;;;;;;;;5120441;28;20206;-68
2023/08/03 05:28:08;;;;;;;2.78;1.23;;;;;;;;;;5120063;28;20203;-68
2023/08/03 05:30:35;;;;;;;4.00;1.10;;;;;;;;;;5119630;28;20217;-68
2023/08/03 05:33:03;;;;;;;3.15;1.10;;;;;;;;;;5119505;28;20203;-69
2023/08/03 05:35:30;;;;;;;2.90;1.27;;;;;;;;;;5119200;28;20606;-69
2023/08/03 05:37:58;;;;;;;2.97;1.00;;;;;;;;;;5119186;28;20222;-68
2023/08/03 05:40:27;;;;;;;3.80;1.27;;;;;;;;;;5118867;28;20298;-68
2023/08/03 05:42:54;;;;;;;2.83;1.23;;;;;;;;;;5118950;28;20199;-68
2023/08/03 05:45:35;;;;;;;3.10;1.30;;;;;;;;;;5119349;28;20203;-68
2023/08/03 05:48:04;;;;;;;2.28;1.08;;;;;;;;;;5119022;28;20203;-69
2023/08/03 05:50:31;;;;;;;2.70;1.00;;;;;;;;;;5119266;28;20286;-68
2023/08/03 05:52:58;;;;;;;3.20;1.17;;;;;;;;;;5119047;28;20301;-68
2023/08/03 05:55:27;;;;;;;2.65;1.20;;;;;;;;;;5118869;28;20199;-68
2023/08/03 05:57:56;;;;;;;4.00;1.13;;;;;;;;;;5119882;28;20604;-68
2023/08/03 06:00:23;;;;;;;2.40;1.00;;;;;;;;;;5118745;28;20305;-69
2023/08/03 06:02:50;;;;;;;3.40;1.23;;;;;;;;;;5118974;28;20199;-68
2023/08/03 06:05:34;;;;;;;3.03;1.15;;;;;;;;;;5118613;28;20203;-68
2023/08/03 06:08:02;;;;;;;4.50;1.20;;;;;;;;;;5119036;28;20203;-68
2023/08/03 06:10:31;;;;;;;2.50;1.15;;;;;;;;;;5118693;28;20606;-68
2023/08/03 06:12:59;;;;;;;3.47;1.17;;;;;;;;;;5118753;28;20307;-68
2023/08/03 06:15:26;;;;;;;5.38;1.13;;;;;;;;;;5117951;28;20238;-68
2023/08/03 06:17:59;;;;;;;2.88;1.27;;;;;;;;;;5118220;28;20293;-69
2023/08/03 06:20:26;;;;;;;3.42;1.30;;;;;;;;;;5118566;28;20286;-69
2023/08/03 06:22:54;;;;;;;4.35;1.33;;;;;;;;;;5118931;28;20297;-68
2023/08/03 06:25:22;;;;;;;2.03;1.00;;;;;;;;;;5118310;28;20290;-68
2023/08/03 06:27:51;;;;;;;3.63;1.10;;;;;;;;;;5117969;28;20203;-68
2023/08/03 06:30:19;;;;;;;3.08;1.10;;;;;;;;;;5118091;28;20199;-68
2023/08/03 06:32:47;;;;;;;2.90;1.20;;;;;;;;;;5118708;28;20207;-68
2023/08/03 06:35:25;;;;;;;1.98;0.82;;;;;;;;;;5118500;28;20478;-68
2023/08/03 06:37:55;;;;;;;3.03;1.02;;;;;;;;;;5117661;28;20637;-68
2023/08/03 06:40:22;;;;;;;2.50;0.90;;;;;;;;;;5117432;28;20286;-68
2023/08/03 06:42:51;;;;;;;1.75;0.90;;;;;;;;;;5117973;28;20218;-68
2023/08/03 06:45:18;;;;;;;5.63;0.90;;;;;;;;;;5117278;28;20203;-68
2023/08/03 06:47:46;;;;;;;2.63;0.82;;;;;;;;;;5118016;28;20260;-68
2023/08/03 06:50:13;;;;;;;5.80;0.93;;;;;;;;;;5115639;28;20213;-68
2023/08/03 06:52:41;;;;;;;2.85;0.80;;;;;;;;;;5108651;28;20633;-68
2023/08/03 06:55:09;;;;;;;2.78;0.90;;;;;;;;;;5116292;28;20210;-68
2023/08/03 06:57:36;;;;;;;3.40;1.00;;;;;;;;;;5117582;28;20317;-68
2023/08/03 07:00:06;;;;;;;2.78;1.30;;;;;;;;;;5117080;28;20298;-68
2023/08/03 07:02:33;;;;;;;3.00;0.90;;;;;;;;;;5117092;28;20202;-68
2023/08/03 07:05:01;;;;;;;2.08;0.73;;;;;;;;;;5117245;28;20202;-68
2023/08/03 07:07:28;;;;;;;3.28;1.20;;;;;;;;;;5117283;28;20199;-68
2023/08/03 07:09:56;;;;;;;3.22;1.08;;;;;;;;;;5117694;28;20214;-69
2023/08/03 07:12:23;;;;;;;2.10;0.90;;;;;;;;;;5117233;28;20541;-68
2023/08/03 07:14:51;;;;;;;2.25;1.00;;;;;;;;;;5117603;28;20290;-69
2023/08/03 07:17:19;;;;;;;3.28;1.27;;;;;;;;;;5116406;28;20226;-68
2023/08/03 07:19:50;;;;;;;3.33;1.13;;;;;;;;;;5116766;28;20460;-68
2023/08/03 07:22:18;;;;;;;3.03;1.02;;;;;;;;;;5117071;28;20279;-68
2023/08/03 07:24:45;;;;;;;1.90;0.85;;;;;;;;;;5117446;28;20203;-68
2023/08/03 07:27:14;;;;;;;2.15;0.90;;;;;;;;;;5117064;28;20297;-68
2023/08/03 07:29:42;;;;;;;5.60;1.00;;;;;;;;;;5116239;28;20241;-68
2023/08/03 07:32:11;;;;;;;3.13;1.05;;;;;;;;;;5116638;28;20213;-68
2023/08/03 07:34:39;;;;;;;2.20;0.77;;;;;;;;;;5116469;28;20319;-68
2023/08/03 07:37:07;;;;;;;2.60;1.00;;;;;;;;;;5116221;28;20295;-68
2023/08/03 07:39:35;;;;;;;2.78;0.90;;;;;;;;;;5116452;28;20195;-68
2023/08/03 07:42:02;;;;;;;2.13;0.80;;;;;;;;;;5116100;28;20211;-69
2023/08/03 07:44:30;;;;;;;2.90;1.02;;;;;;;;;;5116472;28;20585;-68
2023/08/03 07:46:57;;;;;;;3.00;0.80;;;;;;;;;;5116835;28;20264;-68
2023/08/03 07:49:24;;;;;;;1.50;0.63;;;;;;;;;;5116736;28;20205;-68
2023/08/03 07:51:53;;;;;;;1.15;0.60;;;;;;;;;;5116217;28;20231;-68
2023/08/03 07:54:21;;;;;;;3.10;0.80;;;;;;;;;;5116309;28;20302;-68
2023/08/03 07:56:48;;;;;;;2.95;0.52;;;;;;;;;;5116452;28;20315;-68
2023/08/03 07:59:15;;;;;;;2.70;0.80;;;;;;;;;;5116070;28;20212;-68
2023/08/03 08:01:45;;;;;;;1.25;0.55;;;;;;;;;;5115713;28;20208;-69
2023/08/03 08:04:13;;;;;;;1.27;0.50;;;;;;;;;;5116078;28;20199;-69
2023/08/03 08:06:41;;;;;;;2.42;0.60;;;;;;;;;;5116374;28;20195;-68
2023/08/03 08:09:10;;;;;;;2.90;0.60;;;;;;;;;;5115627;28;20289;-68
2023/08/03 08:11:37;;;;;;;1.48;0.60;;;;;;;;;;5116281;28;20298;-69
2023/08/03 08:14:05;;;;;;;1.48;0.50;;;;;;;;;;5116508;28;20199;-68
2023/08/03 08:16:33;;;;;;;1.20;0.65;;;;;;;;;;5115735;28;20577;-68
2023/08/03 08:19:02;;;;;;;1.80;0.60;;;;;;;;;;5115614;28;20290;-68
2023/08/03 08:21:30;;;;;;;0.90;0.50;;;;;;;;;;5106805;28;20260;-68
2023/08/03 08:23:59;;;;;;;1.48;0.60;;;;;;;;;;5095648;28;20673;-68
2023/08/03 08:26:28;;;;;;;1.73;0.70;;;;;;;;;;5094919;28;20203;-68
2023/08/03 08:28:58;;;;;;;2.08;0.55;;;;;;;;;;5095119;28;20195;-68
2023/08/03 08:31:25;;;;;;;1.50;0.57;;;;;;;;;;5095312;28;20253;-68
2023/08/03 08:33:52;;;;;;;1.27;0.60;;;;;;;;;;5095406;28;20195;-68
2023/08/03 08:36:20;;;;;;;0.93;0.40;;;;;;;;;;5094540;28;20214;-68
2023/08/03 08:38:47;;;;;;;0.82;0.50;;;;;;;;;;5095412;28;20199;-68
2023/08/03 08:41:15;;;;;;;1.88;0.60;;;;;;;;;;5094914;28;20298;-68
2023/08/03 08:43:44;;;;;;;1.40;0.68;;;;;;;;;;5094986;28;20213;-69
2023/08/03 08:46:12;;;;;;;1.70;0.70;;;;;;;;;;5094851;28;20203;-68
2023/08/03 08:48:39;;;;;;;2.28;0.98;;;;;;;;;;5094935;28;20235;-68
2023/08/03 08:51:07;;;;;;;0.90;0.47;;;;;;;;;;5094758;28;20231;-68
2023/08/03 08:53:35;;;;;;;1.58;0.50;;;;;;;;;;5095380;28;20306;-69
2023/08/03 08:56:02;;;;;;;1.58;0.55;;;;;;;;;;5095840;28;20286;-68
2023/08/03 08:58:30;;;;;;;2.88;0.63;;;;;;;;;;5100991;28;20240;-68
2023/08/03 09:01:05;;;;;;;1.52;0.55;;;;;;;;;;5114905;28;20673;-68
2023/08/03 09:03:49;;;;;;;1.77;0.63;;;;;;;;;;5115121;28;20264;-68
2023/08/03 09:06:16;;;;;;;1.98;0.60;;;;;;;;;;5115434;28;20229;-69
2023/08/03 09:08:50;;;;;;;1.77;0.55;;;;;;;;;;5115316;28;20206;-68
2023/08/03 09:11:18;;;;;;;1.65;0.60;;;;;;;;;;5115775;28;20699;-68
2023/08/03 09:13:47;;;;;;;2.00;0.60;;;;;;;;;;5115306;28;20211;-68
2023/08/03 09:16:26;;;;;;;3.90;0.60;;;;;;;;;;5115244;28;20286;-68
2023/08/03 09:18:53;;;;;;;1.60;0.80;;;;;;;;;;5116657;28;20213;-68
2023/08/03 09:21:21;;;;;;;1.27;0.60;;;;;;;;;;5119048;28;20497;-68
2023/08/03 09:23:48;;;;;;;1.75;0.57;;;;;;;;;;5118204;28;20210;-68
2023/08/03 09:26:22;;;;;;;1.50;0.60;;;;;;;;;;5118492;28;20582;-68
2023/08/03 09:28:49;;;;;;;1.35;0.50;;;;;;;;;;5118153;28;20203;-68
2023/08/03 09:31:21;;;;;;;2.30;0.68;;;;;;;;;;5118565;28;20233;-68
2023/08/03 09:33:57;;;;;;;1.30;0.70;;;;;;;;;;5118298;28;20213;-69
2023/08/03 09:36:24;;;;;;;1.20;0.55;;;;;;;;;;5118747;28;20214;-68
2023/08/03 09:38:52;;;;;;;2.88;0.75;;;;;;;;;;5118640;28;20218;-68
2023/08/03 09:41:34;;;;;;;2.10;0.70;;;;;;;;;;5118709;28;20207;-68
2023/08/03 09:44:03;;;;;;;1.88;0.80;;;;;;;;;;5118669;28;20727;-68
2023/08/03 09:46:31;;;;;;;1.33;0.75;;;;;;;;;;5118400;28;20270;-68
2023/08/03 09:49:00;;;;;;;2.58;0.77;;;;;;;;;;5118259;28;20195;-68
2023/08/03 09:51:30;;;;;;;4.53;0.90;;;;;;;;;;5117546;28;20725;-68
2023/08/03 09:54:00;;;;;;;2.25;0.80;;;;;;;;;;5118083;28;20343;-68
2023/08/03 09:56:31;;;;;;;1.85;0.70;;;;;;;;;;5118393;28;20214;-68
2023/08/03 09:59:04;;;;;;;2.22;0.43;;;;;;;;;;5117043;28;20222;-68
2023/08/03 10:01:33;;;;;;;1.00;0.65;;;;;;;;;;5118304;28;20203;-68
2023/08/03 10:04:05;;;;;;;0.98;0.52;;;;;;;;;;5117687;28;20210;-68
2023/08/03 10:06:35;;;;;;;1.08;0.55;;;;;;;;;;5117575;28;20562;-68
2023/08/03 10:09:04;;;;;;;1.83;0.70;;;;;;;;;;5117226;28;20265;-68
2023/08/03 10:11:33;;;;;;;1.15;0.65;;;;;;;;;;5116889;28;20199;-68
2023/08/03 10:14:04;;;;;;;2.67;0.90;;;;;;;;;;5117740;28;20198;-68
2023/08/03 10:16:33;;;;;;;1.92;0.70;;;;;;;;;;5116499;28;20210;-68
2023/08/03 10:19:01;;;;;;;2.05;0.73;;;;;;;;;;5117205;28;20226;-68
2023/08/03 10:21:30;;;;;;;0.90;0.50;;;;;;;;;;5117715;28;20211;-68
2023/08/03 10:24:10;;;;;;;2.00;0.65;;;;;;;;;;5117440;28;20231;-68
2023/08/03 10:26:38;;;;;;;1.40;0.50;;;;;;;;;;5116816;28;20213;-68
2023/08/03 10:29:06;;;;;;;1.75;0.57;;;;;;;;;;5117686;28;20260;-68
2023/08/03 10:31:33;;;;;;;2.28;0.52;;;;;;;;;;5117154;28;20289;-68
2023/08/03 10:34:03;;;;;;;1.50;0.50;;;;;;;;;;5117304;28;20619;-68
2023/08/03 10:36:40;;;;;;;1.15;0.60;;;;;;;;;;5116862;28;20202;-68
2023/08/03 10:39:09;;;;;;;1.45;0.55;;;;;;;;;;5117001;28;20229;-68
2023/08/03 10:41:37;;;;;;;0.85;0.40;;;;;;;;;;5116925;28;20263;-68
2023/08/03 10:44:23;;;;;;;2.00;0.80;;;;;;;;;;5117359;28;20289;-69
2023/08/03 10:46:52;;;;;;;2.80;0.70;;;;;;;;;;5114459;28;20249;-68
2023/08/03 10:49:34;;;;;;;1.42;0.60;;;;;;;;;;5096805;28;20205;-68
2023/08/03 10:52:18;;;;;;;1.65;0.60;;;;;;;;;;5083455;28;20236;-68
2023/08/03 10:54:45;;;;;;;0.88;0.60;;;;;;;;;;5097583;28;20298;-68
2023/08/03 10:57:13;;;;;;;1.63;0.50;;;;;;;;;;5096057;28;20284;-69
2023/08/03 10:59:41;;;;;;;1.45;0.40;;;;;;;;;;5111689;28;20207;-68
2023/08/03 11:02:13;;;;;;;1.95;0.50;;;;;;;;;;5115886;28;20597;-69
2023/08/03 11:04:41;;;;;;;1.02;0.60;;;;;;;;;;5116962;28;20203;-68
2023/08/03 11:07:10;;;;;;;2.20;0.50;;;;;;;;;;5116579;28;20194;-68
2023/08/03 11:09:39;;;;;;;1.75;0.57;;;;;;;;;;5116966;28;20207;-68
2023/08/03 11:12:07;;;;;;;1.67;0.50;;;;;;;;;;5116900;28;20646;-68
2023/08/03 11:14:39;;;;;;;1.67;0.60;;;;;;;;;;5116148;28;20289;-69
2023/08/03 11:17:07;;;;;;;2.65;0.50;;;;;;;;;;5115705;28;20199;-68
2023/08/03 11:19:38;;;;;;;3.45;0.55;;;;;;;;;;5116098;28;20774;-68
2023/08/03 11:22:08;;;;;;;0.60;0.35;;;;;;;;;;5116170;28;20203;-69
2023/08/03 11:24:35;;;;;;;0.93;0.40;;;;;;;;;;5115379;28;20558;-68
2023/08/03 11:27:05;;;;;;;1.50;0.50;;;;;;;;;;5115365;28;20203;-68
2023/08/03 11:29:32;;;;;;;1.05;0.63;;;;;;;;;;5116459;28;20561;-68
2023/08/03 11:32:00;;;;;;;1.35;0.70;;;;;;;;;;5115593;28;20628;-69
2023/08/03 11:34:27;;;;;;;3.13;0.40;;;;;;;;;;5115612;28;20770;-68
2023/08/03 11:36:56;;;;;;;0.98;0.40;;;;;;;;;;5116330;28;20590;-68
2023/08/03 11:39:23;;;;;;;0.80;0.50;;;;;;;;;;5115671;28;20223;-68
2023/08/03 11:41:52;;;;;;;1.15;0.50;;;;;;;;;;5114913;28;20194;-68
2023/08/03 11:44:22;;;;;;;1.00;0.40;;;;;;;;;;5115591;28;20305;-68
2023/08/03 11:46:50;;;;;;;1.23;0.50;;;;;;;;;;5116279;28;20295;-68
2023/08/03 11:49:19;;;;;;;1.17;0.30;;;;;;;;;;5116681;28;20681;-68
2023/08/03 11:51:49;;;;;;;1.08;0.60;;;;;;;;;;5115051;28;20326;-68
2023/08/03 11:54:24;;;;;;;1.02;0.60;;;;;;;;;;5114900;28;20203;-68
2023/08/03 11:56:51;;;;;;;3.70;0.50;;;;;;;;;;5116001;28;20202;-68
2023/08/03 11:59:18;;;;;;;1.13;0.60;;;;;;;;;;5115213;28;20517;-68
2023/08/03 12:01:48;;;;;;;1.90;0.50;;;;;;;;;;5116105;28;20256;-68
2023/08/03 12:04:15;;;;;;;1.05;0.60;;;;;;;;;;5115251;28;20297;-68
2023/08/03 12:06:43;;;;;;;2.03;0.50;;;;;;;;;;5116470;28;20228;-68
2023/08/03 12:09:10;;;;;;;1.38;0.50;;;;;;;;;;5115767;28;20195;-69
2023/08/03 12:11:37;;;;;;;1.38;0.70;;;;;;;;;;5115373;28;20568;-68
2023/08/03 12:14:05;;;;;;;1.70;0.50;;;;;;;;;;5115891;28;20245;-68
2023/08/03 12:16:32;;;;;;;0.45;0.40;;;;;;;;;;5115326;28;20213;-68
2023/08/03 12:19:03;;;;;;;0.60;0.40;;;;;;;;;;5115145;28;20223;-68
2023/08/03 12:21:30;;;;;;;0.80;0.50;;;;;;;;;;5114277;28;20275;-68
2023/08/03 12:23:58;;;;;;;0.63;0.50;;;;;;;;;;5115211;28;20211;-68
2023/08/03 12:26:25;;;;;;;0.60;0.47;;;;;;;;;;5115742;28;20619;-68
2023/08/03 12:28:52;;;;;;;0.57;0.40;;;;;;;;;;5113961;28;20515;-68
2023/08/03 12:31:20;;;;;;;3.30;0.75;;;;;;;;;;5114312;28;20195;-69
2023/08/03 12:33:47;;;;;;;0.63;0.50;;;;;;;;;;5114285;28;20203;-68
2023/08/03 12:36:17;;;;;;;1.63;0.80;;;;;;;;;;5114808;28;20387;-69
2023/08/03 12:38:44;;;;;;;1.88;0.70;;;;;;;;;;5114171;28;20319;-68
2023/08/03 12:41:12;;;;;;;1.65;0.57;;;;;;;;;;5114528;28;20653;-68
2023/08/03 12:43:40;;;;;;;0.50;0.47;;;;;;;;;;5108551;28;20230;-68
2023/08/03 12:46:11;;;;;;;2.15;0.50;;;;;;;;;;5105328;28;20618;-68
2023/08/03 12:48:38;;;;;;;1.40;0.50;;;;;;;;;;5114318;28;20199;-69
2023/08/03 12:51:06;;;;;;;1.13;0.55;;;;;;;;;;5114268;28;20227;-69
2023/08/03 12:53:35;;;;;;;0.57;0.52;;;;;;;;;;5114705;28;20203;-69
2023/08/03 12:56:05;;;;;;;0.55;0.40;;;;;;;;;;5119164;28;20218;-69
2023/08/03 12:58:33;;;;;;;0.75;0.55;;;;;;;;;;5118668;28;20315;-68
2023/08/03 13:01:00;;;;;;;0.88;0.60;;;;;;;;;;5119019;28;20199;-68
2023/08/03 13:03:28;;;;;;;0.90;0.50;;;;;;;;;;5117763;28;20307;-68
2023/08/03 13:05:58;;;;;;;1.70;0.43;;;;;;;;;;5118607;28;20343;-68
2023/08/03 13:08:25;;;;;;;0.80;0.60;;;;;;;;;;5118647;28;20548;-68
2023/08/03 13:10:54;;;;;;;0.70;0.50;;;;;;;;;;5118151;28;20203;-68
2023/08/03 13:13:21;;;;;;;0.65;0.50;;;;;;;;;;5118403;28;20203;-69
2023/08/03 13:15:49;;;;;;;2.03;0.50;;;;;;;;;;5118714;28;20199;-68
2023/08/03 13:18:17;;;;;;;0.82;0.52;;;;;;;;;;5117365;28;20226;-68
2023/08/03 13:20:44;;;;;;;1.58;0.50;;;;;;;;;;5117640;28;20660;-68
2023/08/03 13:23:12;;;;;;;1.02;0.50;;;;;;;;;;5118154;28;20289;-68
2023/08/03 13:25:39;;;;;;;1.85;0.60;;;;;;;;;;5118248;28;20306;-68
2023/08/03 13:28:08;;;;;;;0.95;0.40;;;;;;;;;;5117500;28;20199;-68
2023/08/03 13:30:36;;;;;;;0.65;0.40;;;;;;;;;;5116424;28;20221;-68
2023/08/03 13:33:03;;;;;;;0.60;0.40;;;;;;;;;;5117670;28;20199;-68
2023/08/03 13:35:31;;;;;;;0.73;0.50;;;;;;;;;;5117218;28;20290;-68
2023/08/03 13:37:58;;;;;;;1.85;0.60;;;;;;;;;;5117392;28;20198;-68
2023/08/03 13:40:26;;;;;;;1.15;0.50;;;;;;;;;;5117158;28;20566;-69
2023/08/03 13:42:53;;;;;;;0.77;0.47;;;;;;;;;;5117746;28;20234;-68
2023/08/03 13:45:22;;;;;;;1.35;0.40;;;;;;;;;;5117055;28;20203;-68
2023/08/03 13:47:49;;;;;;;1.08;0.50;;;;;;;;;;5117739;28;20199;-68
2023/08/03 13:50:17;;;;;;;0.93;0.40;;;;;;;;;;5116686;28;20221;-68
2023/08/03 13:52:44;;;;;;;0.57;0.32;;;;;;;;;;5116261;28;20234;-68
2023/08/03 13:55:11;;;;;;;1.27;0.47;;;;;;;;;;5116510;28;20221;-68
2023/08/03 13:57:39;;;;;;;1.42;0.60;;;;;;;;;;5117317;28;20207;-69
2023/08/03 14:00:09;;;;;;;1.15;0.60;;;;;;;;;;5117025;28;20523;-69
2023/08/03 14:02:38;;;;;;;1.20;0.40;;;;;;;;;;5117387;28;20199;-69
2023/08/03 14:05:06;;;;;;;1.88;0.60;;;;;;;;;;5117196;28;20252;-68
2023/08/03 14:07:34;;;;;;;0.90;0.50;;;;;;;;;;5117159;28;20572;-68
2023/08/03 14:10:03;;;;;;;1.27;0.50;;;;;;;;;;5116162;28;20298;-68
2023/08/03 14:12:31;;;;;;;1.85;0.50;;;;;;;;;;5115849;28;20211;-69
2023/08/03 14:14:58;;;;;;;0.70;0.40;;;;;;;;;;5117474;28;20282;-68
2023/08/03 14:17:26;;;;;;;1.25;0.40;;;;;;;;;;5116842;28;20203;-68
2023/08/03 14:19:55;;;;;;;1.92;0.60;;;;;;;;;;5116534;28;20508;-68
2023/08/03 14:22:22;;;;;;;1.15;0.60;;;;;;;;;;5117376;28;20654;-68
2023/08/03 14:24:49;;;;;;;1.65;0.50;;;;;;;;;;5115937;28;20233;-68
2023/08/03 14:27:17;;;;;;;0.47;0.40;;;;;;;;;;5117032;28;20302;-68
2023/08/03 14:29:44;;;;;;;0.80;0.40;;;;;;;;;;5116289;28;20195;-68
2023/08/03 14:32:12;;;;;;;0.73;0.40;;;;;;;;;;5116181;28;20207;-68
2023/08/03 14:34:39;;;;;;;0.60;0.40;;;;;;;;;;5116256;28;20610;-68
2023/08/03 14:37:08;;;;;;;1.48;0.70;;;;;;;;;;5115605;28;20678;-68
2023/08/03 14:39:36;;;;;;;0.60;0.40;;;;;;;;;;5115862;28;20229;-68
2023/08/03 14:42:03;;;;;;;0.88;0.40;;;;;;;;;;5115552;28;20217;-68
2023/08/03 14:44:31;;;;;;;0.93;0.60;;;;;;;;;;5115641;28;20201;-68
2023/08/03 14:46:58;;;;;;;0.40;0.40;;;;;;;;;;5116336;28;20195;-69
2023/08/03 14:49:26;;;;;;;0.88;0.75;;;;;;;;;;5115110;28;20203;-69
2023/08/03 14:51:53;;;;;;;1.25;0.50;;;;;;;;;;5115878;28;20230;-69